sensor_id;sensor_type;location;lat;lon;timestamp;pressure;altitude;pressure_sealevel;temperature;humidity
72721;BME280;60835;50.974;10.322;2022-10-15T00:00:40;96180.34;;;14.30;100.00
72721;BME280;60835;50.974;10.322;2022-10-15T00:03:07;96181.09;;;14.37;100.00
72721;BME280;60835;50.974;10.322;2022-10-15T00:05:37;96181.09;;;14.37;100.00
72721;BME280;60835;50.974;10.322;2022-10-15T00:08:05;96188.94;;;14.32;100.00
72721;BME280;60835;50.974;10.322;2022-10-15T00:10:33;96183.00;;;14.30;100.00
72721;BME280;60835;50.974;10.322;2022-10-15T00:12:59;96186.47;;;14.31;100.00
72721;BME280;60835;50.974;10.322;2022-10-15T00:15:26;96182.69;;;14.27;100.00
72721;BME280;60835;50.974;10.322;2022-10-15T00:17:53;96159.41;;;14.22;100.00
72721;BME280;60835;50.974;10.322;2022-10-15T00:20:19;96157.56;;;14.23;100.00
72721;BME280;60835;50.974;10.322;2022-10-15T00:22:45;96165.22;;;14.31;100.00
72721;BME280;60835;50.974;10.322;2022-10-15T00:25:12;96156.91;;;14.39;100.00
72721;BME280;60835;50.974;10.322;2022-10-15T00:27:38;96154.50;;;14.37;100.00
72721;BME280;60835;50.974;10.322;2022-10-15T00:30:06;96157.72;;;14.39;100.00
72721;BME280;60835;50.974;10.322;2022-10-15T00:32:33;96169.38;;;14.38;100.00
72721;BME280;60835;50.974;10.322;2022-10-15T00:35:01;96174.81;;;14.43;100.00
72721;BME280;60835;50.974;10.322;2022-10-15T00:37:27;96172.28;;;14.48;100.00
72721;BME280;60835;50.974;10.322;2022-10-15T00:39:53;96164.06;;;14.27;100.00
72721;BME280;60835;50.974;10.322;2022-10-15T00:42:22;96191.72;;;14.37;100.00
72721;BME280;60835;50.974;10.322;2022-10-15T00:44:55;96183.16;;;14.35;100.00
72721;BME280;60835;50.974;10.322;2022-10-15T00:47:29;96190.56;;;14.33;100.00
72721;BME280;60835;50.974;10.322;2022-10-15T00:55:34;96167.19;;;14.35;100.00
72721;BME280;60835;50.974;10.322;2022-10-15T00:58:06;96174.97;;;14.37;100.00
72721;BME280;60835;50.974;10.322;2022-10-15T01:00:34;96173.69;;;14.39;100.00
72721;BME280;60835;50.974;10.322;2022-10-15T01:03:00;96160.47;;;14.21;100.00
72721;BME280;60835;50.974;10.322;2022-10-15T01:05:27;96171.56;;;14.30;100.00
72721;BME280;60835;50.974;10.322;2022-10-15T01:07:54;96164.84;;;14.27;100.00
72721;BME280;60835;50.974;10.322;2022-10-15T01:10:21;96178.63;;;14.24;100.00
72721;BME280;60835;50.974;10.322;2022-10-15T01:13:00;96163.81;;;14.17;100.00
72721;BME280;60835;50.974;10.322;2022-10-15T01:18:37;96140.69;;;14.17;100.00
72721;BME280;60835;50.974;10.322;2022-10-15T01:24:03;96136.44;;;14.16;100.00
72721;BME280;60835;50.974;10.322;2022-10-15T01:26:59;96119.22;;;14.19;100.00
72721;BME280;60835;50.974;10.322;2022-10-15T01:32:25;96094.94;;;14.03;100.00
72721;BME280;60835;50.974;10.322;2022-10-15T01:35:10;96109.97;;;14.21;100.00
72721;BME280;60835;50.974;10.322;2022-10-15T01:40:38;96092.47;;;14.25;100.00
72721;BME280;60835;50.974;10.322;2022-10-15T01:43:12;96085.47;;;14.08;100.00
72721;BME280;60835;50.974;10.322;2022-10-15T01:45:53;96063.63;;;13.94;100.00
72721;BME280;60835;50.974;10.322;2022-10-15T01:48:25;96093.44;;;14.08;100.00
72721;BME280;60835;50.974;10.322;2022-10-15T01:50:56;96068.47;;;13.97;100.00
72721;BME280;60835;50.974;10.322;2022-10-15T01:53:26;96066.41;;;13.99;100.00
72721;BME280;60835;50.974;10.322;2022-10-15T01:55:56;96070.78;;;14.05;100.00
72721;BME280;60835;50.974;10.322;2022-10-15T01:58:25;96057.97;;;14.02;100.00
72721;BME280;60835;50.974;10.322;2022-10-15T02:00:53;96066.03;;;14.07;100.00
72721;BME280;60835;50.974;10.322;2022-10-15T02:03:21;96070.91;;;14.10;100.00
72721;BME280;60835;50.974;10.322;2022-10-15T02:05:53;96060.16;;;14.05;100.00
72721;BME280;60835;50.974;10.322;2022-10-15T02:11:04;96034.81;;;14.14;100.00
72721;BME280;60835;50.974;10.322;2022-10-15T02:19:28;96039.66;;;14.17;100.00
72721;BME280;60835;50.974;10.322;2022-10-15T02:22:04;96042.94;;;14.08;100.00
72721;BME280;60835;50.974;10.322;2022-10-15T02:24:39;96042.13;;;14.07;100.00
72721;BME280;60835;50.974;10.322;2022-10-15T02:27:09;96031.72;;;14.06;100.00
72721;BME280;60835;50.974;10.322;2022-10-15T02:29:37;96021.78;;;14.01;100.00
72721;BME280;60835;50.974;10.322;2022-10-15T02:32:08;96054.38;;;14.08;100.00
72721;BME280;60835;50.974;10.322;2022-10-15T02:34:37;96055.75;;;14.11;100.00
72721;BME280;60835;50.974;10.322;2022-10-15T02:37:05;96065.34;;;14.12;100.00
72721;BME280;60835;50.974;10.322;2022-10-15T02:39:33;96073.56;;;14.10;100.00
72721;BME280;60835;50.974;10.322;2022-10-15T02:42:00;96058.84;;;14.19;100.00
72721;BME280;60835;50.974;10.322;2022-10-15T02:44:27;96082.31;;;14.22;100.00
72721;BME280;60835;50.974;10.322;2022-10-15T02:46:55;96073.31;;;14.23;100.00
72721;BME280;60835;50.974;10.322;2022-10-15T02:49:23;96069.25;;;14.21;100.00
72721;BME280;60835;50.974;10.322;2022-10-15T02:51:49;96086.94;;;14.27;100.00
72721;BME280;60835;50.974;10.322;2022-10-15T02:54:16;96080.59;;;14.16;100.00
72721;BME280;60835;50.974;10.322;2022-10-15T02:56:43;96090.66;;;14.14;100.00
72721;BME280;60835;50.974;10.322;2022-10-15T02:59:10;96103.13;;;14.25;100.00
72721;BME280;60835;50.974;10.322;2022-10-15T03:01:37;96116.09;;;14.33;100.00
72721;BME280;60835;50.974;10.322;2022-10-15T03:04:03;96121.66;;;14.32;100.00
72721;BME280;60835;50.974;10.322;2022-10-15T03:06:30;96114.69;;;14.19;100.00
72721;BME280;60835;50.974;10.322;2022-10-15T03:08:57;96139.00;;;14.34;100.00
72721;BME280;60835;50.974;10.322;2022-10-15T03:11:23;96117.22;;;14.14;100.00
72721;BME280;60835;50.974;10.322;2022-10-15T03:13:50;96118.84;;;14.15;100.00
72721;BME280;60835;50.974;10.322;2022-10-15T03:16:17;96131.81;;;14.23;100.00
72721;BME280;60835;50.974;10.322;2022-10-15T03:18:44;96158.66;;;14.33;100.00
72721;BME280;60835;50.974;10.322;2022-10-15T03:21:11;96152.16;;;14.18;100.00
72721;BME280;60835;50.974;10.322;2022-10-15T03:23:38;96154.22;;;14.27;100.00
72721;BME280;60835;50.974;10.322;2022-10-15T03:26:05;96152.41;;;14.16;100.00
72721;BME280;60835;50.974;10.322;2022-10-15T03:28:31;96156.66;;;14.17;100.00
72721;BME280;60835;50.974;10.322;2022-10-15T03:30:58;96158.84;;;14.20;100.00
72721;BME280;60835;50.974;10.322;2022-10-15T03:33:25;96164.16;;;14.20;100.00
72721;BME280;60835;50.974;10.322;2022-10-15T03:35:52;96164.16;;;14.20;100.00
72721;BME280;60835;50.974;10.322;2022-10-15T03:38:18;96163.94;;;14.10;100.00
72721;BME280;60835;50.974;10.322;2022-10-15T03:40:45;96173.19;;;14.19;100.00
72721;BME280;60835;50.974;10.322;2022-10-15T03:43:11;96155.84;;;14.05;100.00
72721;BME280;60835;50.974;10.322;2022-10-15T03:45:38;96182.66;;;14.15;100.00
72721;BME280;60835;50.974;10.322;2022-10-15T03:48:04;96167.63;;;14.09;100.00
72721;BME280;60835;50.974;10.322;2022-10-15T03:50:31;96180.25;;;14.02;100.00
72721;BME280;60835;50.974;10.322;2022-10-15T03:52:58;96166.13;;;13.90;100.00
72721;BME280;60835;50.974;10.322;2022-10-15T03:55:24;96178.63;;;13.89;100.00
72721;BME280;60835;50.974;10.322;2022-10-15T03:57:51;96154.44;;;13.79;100.00
72721;BME280;60835;50.974;10.322;2022-10-15T04:00:17;96167.03;;;13.95;100.00
72721;BME280;60835;50.974;10.322;2022-10-15T04:02:44;96173.75;;;13.98;100.00
72721;BME280;60835;50.974;10.322;2022-10-15T04:05:10;96166.59;;;13.98;100.00
72721;BME280;60835;50.974;10.322;2022-10-15T04:07:36;96168.56;;;14.03;100.00
72721;BME280;60835;50.974;10.322;2022-10-15T04:10:03;96138.97;;;13.88;100.00
72721;BME280;60835;50.974;10.322;2022-10-15T04:12:29;96173.63;;;13.93;100.00
72721;BME280;60835;50.974;10.322;2022-10-15T04:14:56;96170.41;;;13.91;100.00
72721;BME280;60835;50.974;10.322;2022-10-15T04:17:22;96165.78;;;13.98;100.00
72721;BME280;60835;50.974;10.322;2022-10-15T04:19:49;96156.78;;;13.99;100.00
72721;BME280;60835;50.974;10.322;2022-10-15T04:22:15;96159.06;;;13.84;100.00
72721;BME280;60835;50.974;10.322;2022-10-15T04:24:42;96168.91;;;13.95;100.00
72721;BME280;60835;50.974;10.322;2022-10-15T04:27:08;96186.78;;;13.88;100.00
72721;BME280;60835;50.974;10.322;2022-10-15T04:29:35;96179.53;;;13.95;100.00
72721;BME280;60835;50.974;10.322;2022-10-15T04:32:01;96182.78;;;13.97;100.00
72721;BME280;60835;50.974;10.322;2022-10-15T04:34:27;96155.97;;;13.87;100.00
72721;BME280;60835;50.974;10.322;2022-10-15T04:36:54;96178.72;;;14.06;100.00
72721;BME280;60835;50.974;10.322;2022-10-15T04:39:21;96187.41;;;14.01;100.00
72721;BME280;60835;50.974;10.322;2022-10-15T04:41:47;96178.03;;;13.99;100.00
72721;BME280;60835;50.974;10.322;2022-10-15T04:44:14;96188.22;;;14.02;100.00
72721;BME280;60835;50.974;10.322;2022-10-15T04:46:40;96178.94;;;13.93;100.00
72721;BME280;60835;50.974;10.322;2022-10-15T04:49:07;96194.91;;;13.93;100.00
72721;BME280;60835;50.974;10.322;2022-10-15T04:51:34;96193.53;;;14.02;100.00
72721;BME280;60835;50.974;10.322;2022-10-15T04:54:00;96195.16;;;14.03;100.00
72721;BME280;60835;50.974;10.322;2022-10-15T04:56:27;96193.66;;;14.07;100.00
72721;BME280;60835;50.974;10.322;2022-10-15T04:58:53;96202.88;;;14.04;100.00
72721;BME280;60835;50.974;10.322;2022-10-15T05:01:20;96190.75;;;13.97;100.00
72721;BME280;60835;50.974;10.322;2022-10-15T05:03:47;96186.47;;;13.96;100.00
72721;BME280;60835;50.974;10.322;2022-10-15T05:06:19;96189.84;;;14.03;100.00
72721;BME280;60835;50.974;10.322;2022-10-15T05:08:46;96201.25;;;14.03;100.00
72721;BME280;60835;50.974;10.322;2022-10-15T05:11:22;96202.88;;;14.04;100.00
72721;BME280;60835;50.974;10.322;2022-10-15T05:13:49;96190.06;;;14.13;100.00
72721;BME280;60835;50.974;10.322;2022-10-15T05:16:19;96186.03;;;14.11;100.00
72721;BME280;60835;50.974;10.322;2022-10-15T05:18:47;96185.22;;;14.10;100.00
72721;BME280;60835;50.974;10.322;2022-10-15T05:21:16;96195.84;;;14.10;100.00
72721;BME280;60835;50.974;10.322;2022-10-15T05:23:43;96194.78;;;14.11;100.00
72721;BME280;60835;50.974;10.322;2022-10-15T05:26:15;96158.84;;;13.97;100.00
72721;BME280;60835;50.974;10.322;2022-10-15T05:28:42;96145.31;;;13.98;100.00
72721;BME280;60835;50.974;10.322;2022-10-15T05:31:13;96174.00;;;14.20;100.00
72721;BME280;60835;50.974;10.322;2022-10-15T05:33:45;96184.75;;;14.13;100.00
72721;BME280;60835;50.974;10.322;2022-10-15T05:36:14;96192.94;;;14.12;100.00
72721;BME280;60835;50.974;10.322;2022-10-15T05:38:48;96195.03;;;14.10;100.00
72721;BME280;60835;50.974;10.322;2022-10-15T05:41:15;96209.47;;;14.02;100.00
72721;BME280;60835;50.974;10.322;2022-10-15T05:43:44;96213.06;;;14.08;100.00
72721;BME280;60835;50.974;10.322;2022-10-15T05:46:11;96212.25;;;14.07;100.00
72721;BME280;60835;50.974;10.322;2022-10-15T05:48:37;96194.34;;;14.02;100.00
72721;BME280;60835;50.974;10.322;2022-10-15T05:51:07;96219.28;;;14.01;100.00
72721;BME280;60835;50.974;10.322;2022-10-15T05:53:33;96222.78;;;14.02;100.00
72721;BME280;60835;50.974;10.322;2022-10-15T05:56:00;96214.34;;;14.05;100.00
72721;BME280;60835;50.974;10.322;2022-10-15T05:58:27;96210.63;;;14.06;100.00
72721;BME280;60835;50.974;10.322;2022-10-15T06:01:02;96203.72;;;14.05;100.00
72721;BME280;60835;50.974;10.322;2022-10-15T06:03:30;96210.16;;;14.09;100.00
72721;BME280;60835;50.974;10.322;2022-10-15T06:05:56;96180.34;;;13.84;100.00
72721;BME280;60835;50.974;10.322;2022-10-15T06:08:22;96205.78;;;14.03;100.00
72721;BME280;60835;50.974;10.322;2022-10-15T06:10:49;96207.84;;;14.01;100.00
72721;BME280;60835;50.974;10.322;2022-10-15T06:13:15;96211.19;;;13.96;100.00
72721;BME280;60835;50.974;10.322;2022-10-15T06:15:44;96204.63;;;13.99;100.00
72721;BME280;60835;50.974;10.322;2022-10-15T06:18:11;96189.84;;;14.03;100.00
72721;BME280;60835;50.974;10.322;2022-10-15T06:20:42;96180.09;;;14.09;100.00
72721;BME280;60835;50.974;10.322;2022-10-15T06:23:10;96173.66;;;14.16;100.00
72721;BME280;60835;50.974;10.322;2022-10-15T06:25:37;96187.41;;;14.13;100.00
72721;BME280;60835;50.974;10.322;2022-10-15T06:28:05;96178.50;;;14.19;100.00
72721;BME280;60835;50.974;10.322;2022-10-15T06:30:32;96174.81;;;14.20;100.00
72721;BME280;60835;50.974;10.322;2022-10-15T06:32:58;96151.22;;;14.12;100.00
72721;BME280;60835;50.974;10.322;2022-10-15T06:35:25;96180.34;;;14.30;100.00
72721;BME280;60835;50.974;10.322;2022-10-15T06:37:52;96170.22;;;14.39;100.00
72721;BME280;60835;50.974;10.322;2022-10-15T06:40:18;96177.72;;;14.42;100.00
72721;BME280;60835;50.974;10.322;2022-10-15T06:42:45;96170.53;;;14.31;100.00
72721;BME280;60835;50.974;10.322;2022-10-15T06:45:11;96196.00;;;14.38;100.00
72721;BME280;60835;50.974;10.322;2022-10-15T06:47:42;96200.16;;;14.46;100.00
72721;BME280;60835;50.974;10.322;2022-10-15T06:50:08;96188.13;;;14.55;100.00
72721;BME280;60835;50.974;10.322;2022-10-15T06:52:35;96203.06;;;14.44;100.00
72721;BME280;60835;50.974;10.322;2022-10-15T06:55:02;96189.06;;;14.37;100.00
72721;BME280;60835;50.974;10.322;2022-10-15T06:57:28;96219.59;;;14.46;100.00
72721;BME280;60835;50.974;10.322;2022-10-15T06:59:55;96219.94;;;14.38;100.00
72721;BME280;60835;50.974;10.322;2022-10-15T07:02:22;96238.66;;;14.43;100.00
72721;BME280;60835;50.974;10.322;2022-10-15T07:04:50;96233.94;;;14.45;100.00
72721;BME280;60835;50.974;10.322;2022-10-15T07:07:16;96241.69;;;14.58;100.00
72721;BME280;60835;50.974;10.322;2022-10-15T07:09:43;96252.06;;;14.48;100.00
72721;BME280;60835;50.974;10.322;2022-10-15T07:12:12;96256.81;;;14.46;100.00
72721;BME280;60835;50.974;10.322;2022-10-15T07:14:38;96262.47;;;14.61;100.00
72721;BME280;60835;50.974;10.322;2022-10-15T07:17:07;96254.84;;;14.53;100.00
72721;BME280;60835;50.974;10.322;2022-10-15T07:19:34;96258.91;;;14.68;100.00
72721;BME280;60835;50.974;10.322;2022-10-15T07:22:00;96277.66;;;14.61;100.00
72721;BME280;60835;50.974;10.322;2022-10-15T07:24:27;96276.03;;;14.72;100.00
72721;BME280;60835;50.974;10.322;2022-10-15T07:26:53;96286.56;;;14.67;100.00
72721;BME280;60835;50.974;10.322;2022-10-15T07:29:20;96293.28;;;14.69;100.00
72721;BME280;60835;50.974;10.322;2022-10-15T07:31:46;96278.59;;;14.67;100.00
72721;BME280;60835;50.974;10.322;2022-10-15T07:34:13;96296.28;;;14.73;100.00
72721;BME280;60835;50.974;10.322;2022-10-15T07:36:39;96283.19;;;14.59;100.00
72721;BME280;60835;50.974;10.322;2022-10-15T07:39:07;96294.56;;;14.67;100.00
72721;BME280;60835;50.974;10.322;2022-10-15T07:41:33;96301.13;;;14.76;100.00
72721;BME280;60835;50.974;10.322;2022-10-15T07:44:00;96290.50;;;14.76;100.00
72721;BME280;60835;50.974;10.322;2022-10-15T07:46:26;96309.34;;;14.97;100.00
72721;BME280;60835;50.974;10.322;2022-10-15T07:48:53;96309.69;;;14.78;100.00
72721;BME280;60835;50.974;10.322;2022-10-15T07:51:19;96308.53;;;14.97;100.00
72721;BME280;60835;50.974;10.322;2022-10-15T07:53:46;96331.00;;;15.01;100.00
72721;BME280;60835;50.974;10.322;2022-10-15T07:56:14;96342.66;;;14.88;100.00
72721;BME280;60835;50.974;10.322;2022-10-15T07:58:41;96347.06;;;14.94;100.00
72721;BME280;60835;50.974;10.322;2022-10-15T08:01:09;96340.72;;;14.84;100.00
72721;BME280;60835;50.974;10.322;2022-10-15T08:03:36;96350.91;;;14.98;100.00
72721;BME280;60835;50.974;10.322;2022-10-15T08:06:05;96337.00;;;15.19;100.00
72721;BME280;60835;50.974;10.322;2022-10-15T08:08:33;96323.78;;;15.13;100.00
72721;BME280;60835;50.974;10.322;2022-10-15T08:11:08;96342.28;;;15.31;100.00
72721;BME280;60835;50.974;10.322;2022-10-15T08:13:35;96350.19;;;15.26;100.00
72721;BME280;60835;50.974;10.322;2022-10-15T08:16:04;96345.88;;;15.37;100.00
72721;BME280;60835;50.974;10.322;2022-10-15T08:18:30;96364.28;;;15.38;100.00
72721;BME280;60835;50.974;10.322;2022-10-15T08:20:58;96357.00;;;15.34;100.00
72721;BME280;60835;50.974;10.322;2022-10-15T08:23:25;96379.38;;;15.09;100.00
72721;BME280;60835;50.974;10.322;2022-10-15T08:25:52;96369.88;;;15.02;100.00
72721;BME280;60835;50.974;10.322;2022-10-15T08:28:18;96402.75;;;15.07;100.00
72721;BME280;60835;50.974;10.322;2022-10-15T08:30:45;96398.38;;;15.13;100.00
72721;BME280;60835;50.974;10.322;2022-10-15T08:33:11;96362.47;;;15.04;100.00
72721;BME280;60835;50.974;10.322;2022-10-15T08:35:42;96404.38;;;15.43;100.00
72721;BME280;60835;50.974;10.322;2022-10-15T08:38:10;96427.19;;;15.27;100.00
72721;BME280;60835;50.974;10.322;2022-10-15T08:40:47;96424.19;;;15.24;100.00
72721;BME280;60835;50.974;10.322;2022-10-15T08:45:55;96441.44;;;15.33;100.00
72721;BME280;60835;50.974;10.322;2022-10-15T08:48:29;96427.28;;;15.44;100.00
72721;BME280;60835;50.974;10.322;2022-10-15T08:51:05;96442.59;;;15.37;100.00
72721;BME280;60835;50.974;10.322;2022-10-15T08:53:41;96452.09;;;15.33;100.00
72721;BME280;60835;50.974;10.322;2022-10-15T08:56:23;96443.88;;;15.46;100.00
72721;BME280;60835;50.974;10.322;2022-10-15T09:04:33;96435.19;;;15.62;100.00
72721;BME280;60835;50.974;10.322;2022-10-15T09:07:12;96454.53;;;15.46;100.00
72721;BME280;60835;50.974;10.322;2022-10-15T09:09:48;96443.19;;;15.62;100.00
72721;BME280;60835;50.974;10.322;2022-10-15T09:12:57;96439.59;;;15.68;100.00
72721;BME280;60835;50.974;10.322;2022-10-15T09:15:26;96449.00;;;15.48;100.00
72721;BME280;60835;50.974;10.322;2022-10-15T09:17:56;96422.91;;;15.15;100.00
72721;BME280;60835;50.974;10.322;2022-10-15T09:20:26;96453.72;;;15.34;100.00
72721;BME280;60835;50.974;10.322;2022-10-15T09:22:56;96443.63;;;15.36;100.00
72721;BME280;60835;50.974;10.322;2022-10-15T09:25:23;96417.38;;;15.51;100.00
72721;BME280;60835;50.974;10.322;2022-10-15T09:27:53;96414.47;;;15.64;100.00
72721;BME280;60835;50.974;10.322;2022-10-15T09:30:32;96428.41;;;15.95;100.00
72721;BME280;60835;50.974;10.322;2022-10-15T09:36:01;96436.91;;;16.20;100.00
72721;BME280;60835;50.974;10.322;2022-10-15T09:44:16;96357.31;;;17.12;100.00
72721;BME280;60835;50.974;10.322;2022-10-15T09:46:48;96302.84;;;17.13;100.00
72721;BME280;60835;50.974;10.322;2022-10-15T09:55:10;96348.53;;;16.78;100.00
72721;BME280;60835;50.974;10.322;2022-10-15T09:57:46;96436.81;;;16.43;100.00
72721;BME280;60835;50.974;10.322;2022-10-15T10:00:14;96421.50;;;17.00;100.00
72721;BME280;60835;50.974;10.322;2022-10-15T10:02:40;96544.38;;;17.00;100.00
72721;BME280;60835;50.974;10.322;2022-10-15T10:05:39;96551.78;;;16.81;100.00
72721;BME280;60835;50.974;10.322;2022-10-15T10:08:20;96525.50;;;16.90;100.00
72721;BME280;60835;50.974;10.322;2022-10-15T10:10:54;96622.38;;;17.14;100.00
72721;BME280;60835;50.974;10.322;2022-10-15T10:13:24;96624.56;;;17.17;100.00
72721;BME280;60835;50.974;10.322;2022-10-15T10:15:53;96603.66;;;16.57;100.00
72721;BME280;60835;50.974;10.322;2022-10-15T10:18:24;96546.19;;;17.11;100.00
72721;BME280;60835;50.974;10.322;2022-10-15T10:23:22;96557.63;;;16.78;100.00
72721;BME280;60835;50.974;10.322;2022-10-15T10:25:49;96538.44;;;16.53;100.00
72721;BME280;60835;50.974;10.322;2022-10-15T10:28:20;96530.84;;;16.33;100.00
72721;BME280;60835;50.974;10.322;2022-10-15T10:35:58;96632.28;;;17.58;100.00
72721;BME280;60835;50.974;10.322;2022-10-15T10:38:29;96719.53;;;18.09;100.00
72721;BME280;60835;50.974;10.322;2022-10-15T10:41:00;96884.88;;;18.80;100.00
72721;BME280;60835;50.974;10.322;2022-10-15T10:43:37;97060.88;;;19.69;100.00
72721;BME280;60835;50.974;10.322;2022-10-15T10:48:51;97286.53;;;19.84;100.00
72721;BME280;60835;50.974;10.322;2022-10-15T10:53:51;97282.75;;;19.40;100.00
72721;BME280;60835;50.974;10.322;2022-10-15T10:56:22;97320.44;;;20.19;100.00
72721;BME280;60835;50.974;10.322;2022-10-15T11:01:42;97517.47;;;19.89;100.00
72721;BME280;60835;50.974;10.322;2022-10-15T11:04:11;97409.34;;;19.31;100.00
72721;BME280;60835;50.974;10.322;2022-10-15T11:09:37;97441.84;;;20.21;100.00
72721;BME280;60835;50.974;10.322;2022-10-15T11:26:29;97467.69;;;19.59;100.00
72721;BME280;60835;50.974;10.322;2022-10-15T11:29:34;97526.09;;;19.57;100.00
72721;BME280;60835;50.974;10.322;2022-10-15T11:43:33;97609.59;;;21.33;100.00
72721;BME280;60835;50.974;10.322;2022-10-15T11:46:16;97723.47;;;22.28;100.00
72721;BME280;60835;50.974;10.322;2022-10-15T11:49:17;97755.41;;;21.18;100.00
72721;BME280;60835;50.974;10.322;2022-10-15T11:54:42;97697.59;;;21.49;100.00
72721;BME280;60835;50.974;10.322;2022-10-15T11:57:20;97678.31;;;20.60;100.00
72721;BME280;60835;50.974;10.322;2022-10-15T11:59:53;97706.59;;;20.28;100.00
72721;BME280;60835;50.974;10.322;2022-10-15T12:02:36;97647.31;;;19.54;100.00
72721;BME280;60835;50.974;10.322;2022-10-15T12:05:06;97626.69;;;20.00;100.00
72721;BME280;60835;50.974;10.322;2022-10-15T12:07:40;97576.28;;;20.14;100.00
72721;BME280;60835;50.974;10.322;2022-10-15T12:10:39;97633.94;;;20.46;100.00
72721;BME280;60835;50.974;10.322;2022-10-15T12:18:46;97650.06;;;20.46;100.00
72721;BME280;60835;50.974;10.322;2022-10-15T12:21:30;97634.06;;;19.93;100.00
72721;BME280;60835;50.974;10.322;2022-10-15T12:23:58;97596.13;;;19.67;100.00
72721;BME280;60835;50.974;10.322;2022-10-15T12:26:27;97618.88;;;19.34;100.00
72721;BME280;60835;50.974;10.322;2022-10-15T12:28:56;97590.34;;;19.52;100.00
72721;BME280;60835;50.974;10.322;2022-10-15T12:34:27;97570.38;;;18.95;100.00
72721;BME280;60835;50.974;10.322;2022-10-15T12:37:03;97560.75;;;19.05;100.00
72721;BME280;60835;50.974;10.322;2022-10-15T12:39:30;97562.66;;;19.16;100.00
72721;BME280;60835;50.974;10.322;2022-10-15T12:42:31;97576.50;;;19.55;100.00
72721;BME280;60835;50.974;10.322;2022-10-15T12:45:01;97551.63;;;19.06;100.00
72721;BME280;60835;50.974;10.322;2022-10-15T12:47:52;97550.53;;;19.25;100.00
72721;BME280;60835;50.974;10.322;2022-10-15T12:50:26;97564.00;;;19.07;100.00
72721;BME280;60835;50.974;10.322;2022-10-15T12:55:27;97494.97;;;18.32;100.00
72721;BME280;60835;50.974;10.322;2022-10-15T12:57:57;97452.94;;;18.62;100.00
72721;BME280;60835;50.974;10.322;2022-10-15T13:00:31;97443.09;;;18.44;100.00
72721;BME280;60835;50.974;10.322;2022-10-15T13:03:28;97430.09;;;18.48;100.00
72721;BME280;60835;50.974;10.322;2022-10-15T13:06:21;97420.22;;;18.30;100.00
72721;BME280;60835;50.974;10.322;2022-10-15T13:11:42;97389.94;;;18.30;100.00
72721;BME280;60835;50.974;10.322;2022-10-15T13:14:17;97378.31;;;18.36;100.00
72721;BME280;60835;50.974;10.322;2022-10-15T13:16:47;97354.38;;;18.11;100.00
72721;BME280;60835;50.974;10.322;2022-10-15T13:19:21;97354.03;;;18.07;100.00
72721;BME280;60835;50.974;10.322;2022-10-15T13:21:58;97357.34;;;18.33;100.00
72721;BME280;60835;50.974;10.322;2022-10-15T13:24:27;97386.28;;;18.42;100.00
72721;BME280;60835;50.974;10.322;2022-10-15T13:26:56;97360.47;;;18.48;100.00
72721;BME280;60835;50.974;10.322;2022-10-15T13:29:26;97360.00;;;18.51;100.00
72721;BME280;60835;50.974;10.322;2022-10-15T13:31:54;97367.72;;;18.29;100.00
72721;BME280;60835;50.974;10.322;2022-10-15T13:34:27;97342.25;;;18.38;100.00
72721;BME280;60835;50.974;10.322;2022-10-15T13:36:57;97331.97;;;18.23;100.00
72721;BME280;60835;50.974;10.322;2022-10-15T13:45:01;97291.09;;;17.75;100.00
72721;BME280;60835;50.974;10.322;2022-10-15T13:47:33;97272.50;;;17.80;100.00
72721;BME280;60835;50.974;10.322;2022-10-15T13:50:27;97268.53;;;18.12;100.00
72721;BME280;60835;50.974;10.322;2022-10-15T13:52:59;97280.72;;;18.08;100.00
72721;BME280;60835;50.974;10.322;2022-10-15T13:55:29;97276.47;;;18.31;100.00
72721;BME280;60835;50.974;10.322;2022-10-15T13:58:16;97271.41;;;17.99;100.00
72721;BME280;60835;50.974;10.322;2022-10-15T14:01:21;97251.28;;;18.08;100.00
72721;BME280;60835;50.974;10.322;2022-10-15T14:03:56;97244.44;;;18.36;100.00
72721;BME280;60835;50.974;10.322;2022-10-15T14:06:24;97294.50;;;18.23;100.00
72721;BME280;60835;50.974;10.322;2022-10-15T14:08:58;97273.09;;;18.23;100.00
72721;BME280;60835;50.974;10.322;2022-10-15T14:11:27;97260.59;;;18.06;100.00
72721;BME280;60835;50.974;10.322;2022-10-15T14:13:56;97281.19;;;18.05;100.00
72721;BME280;60835;50.974;10.322;2022-10-15T14:16:35;97256.06;;;18.06;100.00
72721;BME280;60835;50.974;10.322;2022-10-15T14:21:32;97257.94;;;18.17;100.00
72721;BME280;60835;50.974;10.322;2022-10-15T14:24:15;97271.72;;;17.91;100.00
72721;BME280;60835;50.974;10.322;2022-10-15T14:26:45;97287.91;;;17.96;100.00
72721;BME280;60835;50.974;10.322;2022-10-15T14:29:19;97285.94;;;18.03;100.00
72721;BME280;60835;50.974;10.322;2022-10-15T14:31:48;97272.06;;;17.83;100.00
72721;BME280;60835;50.974;10.322;2022-10-15T14:36:59;97302.63;;;18.05;100.00
72721;BME280;60835;50.974;10.322;2022-10-15T14:39:32;97287.00;;;18.02;100.00
72721;BME280;60835;50.974;10.322;2022-10-15T14:42:21;97271.84;;;17.96;100.00
72721;BME280;60835;50.974;10.322;2022-10-15T14:44:50;97283.00;;;17.93;100.00
72721;BME280;60835;50.974;10.322;2022-10-15T14:47:23;97255.75;;;17.73;100.00
72721;BME280;60835;50.974;10.322;2022-10-15T14:49:54;97252.53;;;17.94;100.00
72721;BME280;60835;50.974;10.322;2022-10-15T14:52:22;97256.50;;;17.62;100.00
72721;BME280;60835;50.974;10.322;2022-10-15T14:55:04;97225.53;;;17.84;100.00
72721;BME280;60835;50.974;10.322;2022-10-15T14:57:38;97241.09;;;17.76;100.00